world map with EFKT marked

EFKT - Airport

This information may not be accurate or current and is not valid for navigation or flight planning. No warranty of fitness for any purpose is made or implied.

flag of Finland

Donate via PayPal

Additional information is available on the NEW Great Circle Mapper

Location
City:  Kittila, Finland
ICAO / IATA:EFKT / KTT

Details
Type:Airport (Aerodrome, Airfield)
Latitude:67°42'04"N (67.701022)
Longitude:24°50'49"E (24.846850)
Datum:WGS 1984
Elevation:644 ft (196 m)
Runways:1
Longest:8202 × 148 ft (2500 × 45 m)

Time
Timezone:UTC+2 (DST+3)
Local Time:

Weather
METAR:EFKT  301120Z AUTO 32013KT 290V360 CAVOK 06/M03 Q1023
TAF:EFKT  (expired)

Related Locations
Nearby:
Farthest:NZWD: 11416 mi / 18372 km
McMurdo Station [Williams Field], Ross Island, AQ

Find:

   beyond  
but within

Other Information
Maps:
Links:
Sources:

  


 


Great Circle Mapper   Great Circle Mapper
Great Circle Mapper FAQ   Great Circle Mapper FAQ
  Karl's Home Page
KLSē   KLSē Home
   GC on Facebook
Airlines of the World   Airlines of the World
Donate via PayPal


Copyright © 2004-2014, Karl L. Swartz. All rights reserved.
All trademarks mentioned herein belong to their respective owners.

Please see credits for attribution and copyright information.

Karl Swartz <karl@kls2.com>
  Powered by FreeBSD
Valid HTML 4.01!
Labeled with ICRA
hCard Microformat
Geo Microformat